Laredo, TX

5:52 PM CST en Noviembre 23, 2014 (GMT -0600)
Laredo International | Change Station
CLOSE
Current Station
Aeropuerto
Location: Laredo,
Altura: 509 ft
Estaciones meteorológicas cercanas

Alt 509 ft 27.54 °N, 99.46 °W | Updated 56 minutes ago

Despejado
Despejado
82 ° F
Sensación térmica 82 ° F
N
8
Viento Variable Viento desde Sur

Hoy
Alta -- | Baja -- ° F
--% Posibilidad de precipitaciones
Ayer
Alta -- | Baja -- ° F
Precip. -- pul
7:04 AM 5:43 PM
Creciente, 3% visible
Presión 29.61 pul
Visibilidad 10.0 Millas
Nubes Despejado
Punto de rocío 47 ° F
Humedad 29%
Precipitaciones 0.00 pul
Espesor de la nieve No disponible.
UV 0 de una escala de 12
Polen 6.30 de una escala de 12
Calidad del aire No disponible.
Flu Activity No disponible.
METAR KLRD 232256Z AUTO 18007KT 10SM CLR 28/08 A2964 RMK AO2 TSNO T02770083 SLP027

More Conditions Fewer Conditions

Presión 29.61 pul
Visibilidad 10.0 Millas
Nubes Despejado
Punto de rocío 47 ° F
Humedad 29%
Precipitaciones 0.00 pul
Espesor de la nieve No disponible.
UV 0 de una escala de 12
Polen 6.30 de una escala de 12
Calidad del aire No disponible.
Flu Activity No disponible.
METAR KLRD 232256Z AUTO 18007KT 10SM CLR 28/08 A2964 RMK AO2 TSNO T02770083 SLP027

More Conditions Fewer Conditions

10-Day Weather Forecast

Almanac

Astronomía

Nov. 23, 2014 Salida Puesta
Hora real
Crepúsculo civil
Crepúsculo náutico
Crepúsculo astronómico
Luna
Horas de luz
Horas de luz
Tomorrow will be .
, % of the Moon is Illuminated

Extremos de hoy

Máximos del estado Bajos del estado

Community

WunderPhotos

Upload Photos

1,773,211 ¡fotos cargadas!

WunderBlogs® & News

Nearby

Calidad del aire

  Calidad del aire Índice AQ Contaminante
Not available.

Grosos de nieve

Estación Profundido Altura

Actividad de terremotos

Ciudad Distance Mag. Tiempo y dato
Magnitud mínima muestra es 2,5.

Temperaturas de aguas costeras

Lugar Temperatura

Estaciones meteorológicas cercanas